createdAt,value
2023-05-05T00:01:19.580Z,4.87
2023-05-05T00:03:48.857Z,4.40
2023-05-05T00:06:16.615Z,5.23
2023-05-05T00:08:44.529Z,5.27
2023-05-05T00:11:12.389Z,6.23
2023-05-05T00:13:40.284Z,5.10
2023-05-05T00:16:08.429Z,5.13
2023-05-05T00:18:36.410Z,5.40
2023-05-05T00:21:05.642Z,5.17
2023-05-05T00:23:33.457Z,5.27
2023-05-05T00:26:01.190Z,6.80
2023-05-05T00:28:28.786Z,5.37
2023-05-05T00:30:56.434Z,5.63
2023-05-05T00:33:24.101Z,7.00
2023-05-05T00:35:51.845Z,7.43
2023-05-05T00:38:20.804Z,6.83
2023-05-05T00:40:48.641Z,7.70
2023-05-05T00:43:16.391Z,7.93
2023-05-05T00:45:47.798Z,7.27
2023-05-05T00:48:16.944Z,8.00
2023-05-05T00:50:45.891Z,9.13
2023-05-05T00:53:14.114Z,8.33
2023-05-05T00:55:43.506Z,7.30
2023-05-05T00:58:11.180Z,7.97
2023-05-05T01:00:39.175Z,7.67
2023-05-05T01:03:06.938Z,5.57
2023-05-05T01:05:43.590Z,7.43
2023-05-05T01:08:27.307Z,5.77
2023-05-05T01:11:02.300Z,6.90
2023-05-05T01:13:38.244Z,6.43
2023-05-05T01:16:15.878Z,6.50
2023-05-05T01:18:48.846Z,6.13
2023-05-05T01:21:21.130Z,7.00
2023-05-05T01:24:11.791Z,6.53
2023-05-05T01:26:53.774Z,6.43
2023-05-05T01:29:56.002Z,7.03
2023-05-05T01:32:28.440Z,5.43
2023-05-05T01:35:01.131Z,6.63
2023-05-05T01:37:33.412Z,5.60
2023-05-05T01:40:05.951Z,5.27
2023-05-05T01:42:36.231Z,6.03
2023-05-05T01:45:08.248Z,7.43
2023-05-05T01:47:40.254Z,6.50
2023-05-05T01:50:10.018Z,8.23
2023-05-05T01:52:39.556Z,6.07
2023-05-05T01:55:09.389Z,5.80
2023-05-05T01:57:40.719Z,4.87
2023-05-05T02:00:10.647Z,5.53
2023-05-05T02:02:50.074Z,5.27
2023-05-05T02:05:22.809Z,5.10
2023-05-05T02:07:52.223Z,4.77
2023-05-05T02:10:20.056Z,5.33
2023-05-05T02:12:48.840Z,4.83
2023-05-05T02:15:18.041Z,6.13
2023-05-05T02:17:48.617Z,4.60
2023-05-05T02:20:18.047Z,4.83
2023-05-05T02:22:46.019Z,5.13
2023-05-05T02:25:13.924Z,4.07
2023-05-05T02:27:44.180Z,5.53
2023-05-05T02:30:16.091Z,4.83
2023-05-05T02:32:51.414Z,5.13
2023-05-05T02:35:23.384Z,5.50
2023-05-05T02:37:57.064Z,4.97
2023-05-05T02:40:27.785Z,4.63
2023-05-05T02:42:58.302Z,3.87
2023-05-05T02:45:30.873Z,4.80
2023-05-05T02:50:33.357Z,4.30
2023-05-05T02:53:12.644Z,5.13
2023-05-05T02:55:44.730Z,4.00
2023-05-05T02:58:22.777Z,5.23
2023-05-05T03:00:56.658Z,4.47
2023-05-05T03:03:32.005Z,3.77
2023-05-05T03:06:06.815Z,3.53
2023-05-05T03:08:42.211Z,4.57
2023-05-05T03:11:17.661Z,4.43
2023-05-05T03:13:51.451Z,5.07
2023-05-05T03:16:24.650Z,5.10
2023-05-05T03:18:54.995Z,5.50
2023-05-05T03:21:24.434Z,4.87
2023-05-05T03:23:52.176Z,5.50
2023-05-05T03:26:23.122Z,5.00
2023-05-05T03:28:50.892Z,4.73
2023-05-05T03:31:24.618Z,4.93
2023-05-05T03:33:57.619Z,5.27
2023-05-05T03:36:29.484Z,5.33
2023-05-05T03:38:58.708Z,4.63
2023-05-05T03:41:29.159Z,5.57
2023-05-05T03:43:57.224Z,4.43
2023-05-05T03:46:25.411Z,5.03
2023-05-05T03:48:56.901Z,3.87
2023-05-05T03:51:28.023Z,4.30
2023-05-05T03:53:56.148Z,4.03
2023-05-05T03:56:23.852Z,4.67
2023-05-05T03:58:53.188Z,2.93
2023-05-05T04:01:20.819Z,3.37
2023-05-05T04:03:48.551Z,3.33
2023-05-05T04:06:16.225Z,3.90
2023-05-05T04:08:45.380Z,4.37
2023-05-05T04:11:12.995Z,3.90
2023-05-05T04:13:41.513Z,5.00
2023-05-05T04:16:09.679Z,4.53
2023-05-05T04:18:39.003Z,3.67
2023-05-05T04:21:06.682Z,3.90
2023-05-05T04:23:34.922Z,4.03
2023-05-05T04:26:04.311Z,4.13
2023-05-05T04:28:31.946Z,3.70
2023-05-05T04:31:01.150Z,3.50
2023-05-05T04:33:31.461Z,3.20
2023-05-05T04:35:59.541Z,3.87
2023-05-05T04:38:28.077Z,4.20
2023-05-05T04:40:56.607Z,3.97
2023-05-05T04:43:25.611Z,3.20
2023-05-05T04:45:53.922Z,4.27
2023-05-05T04:48:23.818Z,4.20
2023-05-05T04:50:52.756Z,3.50
2023-05-05T04:53:20.705Z,4.23
2023-05-05T04:55:48.558Z,3.67
2023-05-05T04:58:16.173Z,3.37
2023-05-05T05:00:46.497Z,3.37
2023-05-05T05:03:14.144Z,3.03
2023-05-05T05:05:41.778Z,4.37
2023-05-05T05:08:09.445Z,4.27
2023-05-05T05:10:37.594Z,4.03
2023-05-05T05:13:05.379Z,3.07
2023-05-05T05:15:33.266Z,3.73
2023-05-05T05:18:02.423Z,3.50
2023-05-05T05:20:30.995Z,2.97
2023-05-05T05:23:02.057Z,4.77
2023-05-05T05:25:31.264Z,4.23
2023-05-05T05:28:09.637Z,3.60
2023-05-05T05:30:42.791Z,4.80
2023-05-05T05:33:13.396Z,3.27
2023-05-05T05:35:42.318Z,4.20
2023-05-05T05:38:11.539Z,3.17
2023-05-05T05:40:39.205Z,4.27
2023-05-05T05:43:07.356Z,3.93
2023-05-05T05:45:37.559Z,3.67
2023-05-05T05:48:07.145Z,3.03
2023-05-05T05:50:36.460Z,5.33
2023-05-05T05:53:04.800Z,3.43
2023-05-05T05:55:32.742Z,4.20
2023-05-05T05:58:00.480Z,4.20
2023-05-05T06:00:29.291Z,4.77
2023-05-05T06:03:04.039Z,4.60
2023-05-05T06:05:37.103Z,3.17
2023-05-05T06:08:05.056Z,4.13
2023-05-05T06:10:36.305Z,4.57
2023-05-05T06:13:09.424Z,4.23
2023-05-05T06:15:40.710Z,4.83
2023-05-05T06:18:08.746Z,4.40
2023-05-05T06:20:38.125Z,3.90
2023-05-05T06:23:05.997Z,3.73
2023-05-05T06:25:37.596Z,3.63
2023-05-05T06:28:07.214Z,3.20
2023-05-05T06:30:35.629Z,2.67
2023-05-05T06:33:03.376Z,3.60
2023-05-05T06:35:31.929Z,3.67
2023-05-05T06:38:00.934Z,2.93
2023-05-05T06:40:28.825Z,4.33
2023-05-05T06:42:56.553Z,4.63
2023-05-05T06:45:31.070Z,2.77
2023-05-05T06:47:58.778Z,2.77
2023-05-05T06:50:26.395Z,3.00
2023-05-05T06:52:54.030Z,2.90
2023-05-05T06:55:23.472Z,2.80
2023-05-05T06:57:51.263Z,3.07
2023-05-05T07:00:19.722Z,2.50
2023-05-05T07:02:48.225Z,2.73
2023-05-05T07:05:15.871Z,2.90
2023-05-05T07:07:52.316Z,2.43
2023-05-05T07:10:20.269Z,2.57
2023-05-05T07:12:49.902Z,2.20
2023-05-05T07:15:27.320Z,2.43
2023-05-05T07:17:56.772Z,2.23
2023-05-05T07:20:25.030Z,3.00
2023-05-05T07:22:52.781Z,3.10
2023-05-05T07:25:20.820Z,2.43
2023-05-05T07:27:49.948Z,2.67
2023-05-05T07:30:19.060Z,1.70
2023-05-05T07:32:47.364Z,2.00
2023-05-05T07:35:15.270Z,2.20
2023-05-05T07:37:42.907Z,3.53
2023-05-05T07:40:11.566Z,1.53
2023-05-05T07:42:39.474Z,2.33
2023-05-05T07:45:09.567Z,3.13
2023-05-05T07:47:37.358Z,2.30
2023-05-05T07:50:05.774Z,2.87
2023-05-05T07:52:44.093Z,2.63
2023-05-05T07:55:14.269Z,3.20
2023-05-05T07:57:42.196Z,1.53
2023-05-05T08:00:13.265Z,2.57
2023-05-05T08:02:41.231Z,2.10
2023-05-05T08:05:10.071Z,2.27
2023-05-05T08:07:41.222Z,2.00
2023-05-05T08:10:11.420Z,3.10
2023-05-05T08:12:39.376Z,2.57
2023-05-05T08:15:08.021Z,2.07
2023-05-05T08:17:48.072Z,1.73
2023-05-05T08:20:16.228Z,3.67
2023-05-05T08:22:44.123Z,1.97
2023-05-05T08:25:12.920Z,2.07
2023-05-05T08:27:42.088Z,3.20
2023-05-05T08:30:10.931Z,2.47
2023-05-05T08:32:38.985Z,2.07
2023-05-05T08:35:08.874Z,2.47
2023-05-05T08:37:36.850Z,2.30
2023-05-05T08:40:05.476Z,2.80
2023-05-05T08:42:38.772Z,2.20
2023-05-05T08:45:09.251Z,2.53
2023-05-05T08:47:38.040Z,2.80
2023-05-05T08:50:06.668Z,2.60
2023-05-05T08:52:40.883Z,2.83
2023-05-05T08:55:15.512Z,2.73
2023-05-05T08:57:51.228Z,2.67
2023-05-05T09:00:20.763Z,2.63
2023-05-05T09:02:49.006Z,2.07
2023-05-05T09:05:17.768Z,2.80
2023-05-05T09:07:47.254Z,3.07
2023-05-05T09:10:15.723Z,2.23
2023-05-05T09:12:43.550Z,2.87
2023-05-05T09:15:13.044Z,3.10
2023-05-05T09:17:41.533Z,1.80
2023-05-05T09:20:10.928Z,2.28
2023-05-05T09:22:40.815Z,1.58
2023-05-05T09:25:12.537Z,2.00
2023-05-05T09:27:42.082Z,2.20
2023-05-05T09:30:10.948Z,1.95
2023-05-05T09:32:49.756Z,1.90
2023-05-05T09:35:18.378Z,1.13
2023-05-05T09:37:46.741Z,2.20
2023-05-05T09:40:17.715Z,3.30
2023-05-05T09:42:45.802Z,2.22
2023-05-05T09:45:27.319Z,2.17
2023-05-05T09:47:59.625Z,1.73
2023-05-05T09:50:30.292Z,3.25
2023-05-05T09:52:59.855Z,1.58
2023-05-05T09:55:30.771Z,1.30
2023-05-05T09:57:58.552Z,2.65
2023-05-05T10:00:38.981Z,1.70
2023-05-05T10:03:07.275Z,2.60
2023-05-05T10:05:47.187Z,2.95
2023-05-05T10:08:14.819Z,2.95
2023-05-05T10:10:51.576Z,1.67
2023-05-05T10:13:20.617Z,2.38
2023-05-05T10:15:50.873Z,2.08
2023-05-05T10:18:22.357Z,1.95
2023-05-05T10:20:56.998Z,1.65
2023-05-05T10:23:27.367Z,1.75
2023-05-05T10:26:02.159Z,2.92
2023-05-05T10:28:33.907Z,2.20
2023-05-05T10:31:12.821Z,2.15
2023-05-05T10:33:53.505Z,1.77
2023-05-05T10:36:21.666Z,1.58
2023-05-05T10:38:55.849Z,1.98
2023-05-05T10:41:25.894Z,2.03
2023-05-05T10:43:56.352Z,2.28
2023-05-05T10:46:25.001Z,2.10
2023-05-05T10:49:03.857Z,3.47
2023-05-05T10:51:41.506Z,3.10
2023-05-05T10:54:15.259Z,2.00
2023-05-05T10:56:44.424Z,2.15
2023-05-05T10:59:40.727Z,2.30
2023-05-05T11:02:22.975Z,2.33
2023-05-05T11:05:14.226Z,2.00
2023-05-05T11:07:42.917Z,2.40
2023-05-05T11:10:12.016Z,1.55
2023-05-05T11:13:21.864Z,1.63
2023-05-05T11:15:52.014Z,1.58
2023-05-05T11:18:31.162Z,1.77
2023-05-05T11:21:16.402Z,1.80
2023-05-05T11:23:49.028Z,1.10
2023-05-05T11:26:18.384Z,2.08
2023-05-05T11:28:59.683Z,2.20
2023-05-05T11:31:27.759Z,2.67
2023-05-05T11:33:55.529Z,1.67
2023-05-05T11:36:40.284Z,1.27
2023-05-05T11:39:23.927Z,1.98
2023-05-05T11:42:10.781Z,1.60
2023-05-05T11:44:40.180Z,2.25
2023-05-05T11:47:29.263Z,1.58
2023-05-05T11:49:57.471Z,2.10
2023-05-05T11:52:27.466Z,2.08
2023-05-05T11:55:00.810Z,1.63
2023-05-05T11:57:30.047Z,1.30
2023-05-05T12:00:02.258Z,1.83
2023-05-05T12:02:32.576Z,1.35
2023-05-05T12:05:01.269Z,2.72
2023-05-05T12:07:30.830Z,1.15
2023-05-05T12:09:58.991Z,1.15
2023-05-05T12:12:37.447Z,1.20
2023-05-05T12:15:09.148Z,1.42
2023-05-05T12:17:39.961Z,2.22
2023-05-05T12:20:09.596Z,1.70
2023-05-05T12:22:37.786Z,1.38
2023-05-05T12:25:07.566Z,1.63
2023-05-05T12:27:36.019Z,1.50
2023-05-05T12:30:24.201Z,1.42
2023-05-05T12:32:51.941Z,1.67
2023-05-05T12:35:19.813Z,2.13
2023-05-05T12:37:47.463Z,1.30
2023-05-05T12:40:45.876Z,1.98
2023-05-05T12:43:31.136Z,2.28
2023-05-05T12:46:11.762Z,1.90
2023-05-05T12:48:41.568Z,2.15
2023-05-05T12:51:17.243Z,2.35
2023-05-05T12:53:45.411Z,3.13
2023-05-05T12:56:33.002Z,2.85
2023-05-05T12:59:00.903Z,1.88
2023-05-05T13:01:30.539Z,2.63
2023-05-05T13:04:12.787Z,2.13
2023-05-05T13:06:42.662Z,1.92
2023-05-05T13:09:22.915Z,3.25
2023-05-05T13:11:50.598Z,2.13
2023-05-05T13:14:18.219Z,2.08
2023-05-05T13:16:47.739Z,2.30
2023-05-05T13:19:15.529Z,1.85
2023-05-05T13:21:43.269Z,2.30
2023-05-05T13:24:22.940Z,2.63
2023-05-05T13:26:56.504Z,1.40
2023-05-05T13:29:28.383Z,1.77
2023-05-05T13:31:59.692Z,2.30
2023-05-05T13:34:27.449Z,1.90
2023-05-05T13:36:55.096Z,1.77
2023-05-05T13:39:22.834Z,1.90
2023-05-05T13:41:50.462Z,1.95
2023-05-05T13:44:18.286Z,1.50
2023-05-05T13:46:46.034Z,1.63
2023-05-05T13:49:15.041Z,0.98
2023-05-05T13:51:42.649Z,1.27
2023-05-05T13:54:10.620Z,1.92
2023-05-05T13:56:38.306Z,2.45
2023-05-05T13:59:05.904Z,2.13
2023-05-05T14:01:33.617Z,2.92
2023-05-05T14:04:04.529Z,1.60
2023-05-05T14:06:35.674Z,1.38
2023-05-05T14:09:05.936Z,1.80
2023-05-05T14:11:33.944Z,3.30
2023-05-05T14:14:01.855Z,2.50
2023-05-05T14:16:29.661Z,2.55
2023-05-05T14:18:57.461Z,2.83
2023-05-05T14:21:25.215Z,1.95
2023-05-05T14:23:54.167Z,3.22
2023-05-05T14:26:21.817Z,2.05
2023-05-05T14:28:50.164Z,3.80
2023-05-05T14:31:18.511Z,2.35
2023-05-05T14:33:46.161Z,2.72
2023-05-05T14:36:14.394Z,3.70
2023-05-05T14:38:43.023Z,2.70
2023-05-05T14:41:12.198Z,2.72
2023-05-05T14:43:39.983Z,3.58
2023-05-05T14:46:07.935Z,2.55
2023-05-05T14:48:35.918Z,2.55
2023-05-05T14:51:04.332Z,2.65
2023-05-05T14:53:31.948Z,2.13
2023-05-05T14:55:59.627Z,2.75
2023-05-05T14:58:28.556Z,2.00
2023-05-05T15:00:56.386Z,1.88
2023-05-05T15:03:23.985Z,2.28
2023-05-05T15:05:51.680Z,2.20
2023-05-05T15:08:19.623Z,2.38
2023-05-05T15:10:47.508Z,2.25
2023-05-05T15:13:15.660Z,1.52
2023-05-05T15:15:45.069Z,1.80
2023-05-05T15:18:12.966Z,1.67
2023-05-05T15:20:40.546Z,1.52
2023-05-05T15:23:08.346Z,2.28
2023-05-05T15:25:36.477Z,1.67
2023-05-05T15:28:04.170Z,2.25
2023-05-05T15:30:31.793Z,1.60
2023-05-05T15:33:00.993Z,1.98
2023-05-05T15:35:28.585Z,3.78
2023-05-05T15:37:56.161Z,2.85
2023-05-05T15:40:23.871Z,1.67
2023-05-05T15:42:51.649Z,2.00
2023-05-05T15:45:19.432Z,2.95
2023-05-05T15:47:47.986Z,2.17
2023-05-05T15:50:17.324Z,1.85
2023-05-05T15:52:45.288Z,1.98
2023-05-05T15:55:12.952Z,1.88
2023-05-05T15:57:40.780Z,2.15
2023-05-05T16:00:09.381Z,2.22
2023-05-05T16:02:38.306Z,2.53
2023-05-05T16:05:06.700Z,1.83
2023-05-05T16:07:35.883Z,1.83
2023-05-05T16:10:03.787Z,1.95
2023-05-05T16:12:31.466Z,1.83
2023-05-05T16:14:59.274Z,1.42
2023-05-05T16:17:27.042Z,2.72
2023-05-05T16:19:54.760Z,1.55
2023-05-05T16:22:22.313Z,1.38
2023-05-05T16:24:51.659Z,2.00
2023-05-05T16:27:19.398Z,1.70
2023-05-05T16:29:46.968Z,1.73
2023-05-05T16:32:14.585Z,1.20
2023-05-05T16:34:42.258Z,1.73
2023-05-05T16:37:09.816Z,1.63
2023-05-05T16:39:40.371Z,1.30
2023-05-05T16:42:09.345Z,1.13
2023-05-05T16:44:37.367Z,1.00
2023-05-05T16:47:05.012Z,1.77
2023-05-05T16:49:32.827Z,2.45
2023-05-05T16:52:00.485Z,1.92
2023-05-05T16:54:28.160Z,3.03
2023-05-05T16:56:55.746Z,2.10
2023-05-05T16:59:24.673Z,1.70
2023-05-05T17:01:52.394Z,1.50
2023-05-05T17:04:20.048Z,2.25
2023-05-05T17:06:47.749Z,2.45
2023-05-05T17:09:15.655Z,1.88
2023-05-05T17:11:43.231Z,1.80
2023-05-05T17:14:10.844Z,2.13
2023-05-05T17:16:40.171Z,2.58
2023-05-05T17:19:07.743Z,1.30
2023-05-05T17:21:35.307Z,2.42
2023-05-05T17:24:02.876Z,2.20
2023-05-05T17:26:31.038Z,2.73
2023-05-05T17:28:58.626Z,2.10
2023-05-05T17:31:26.290Z,2.07
2023-05-05T17:33:55.498Z,2.00
2023-05-05T17:36:23.564Z,1.33
2023-05-05T17:38:51.153Z,1.97
2023-05-05T17:41:18.720Z,2.13
2023-05-05T17:43:46.303Z,1.63
2023-05-05T17:46:13.891Z,1.63
2023-05-05T17:48:41.635Z,2.57
2023-05-05T17:51:11.122Z,2.30
2023-05-05T17:53:38.807Z,2.53
2023-05-05T17:56:08.771Z,1.80
2023-05-05T17:58:36.811Z,2.27
2023-05-05T18:01:04.403Z,3.07
2023-05-05T18:03:32.189Z,2.23
2023-05-05T18:05:59.840Z,2.77
2023-05-05T18:08:29.094Z,0.97
2023-05-05T18:10:57.003Z,1.27
2023-05-05T18:13:24.564Z,2.20
2023-05-05T18:15:52.170Z,1.30
2023-05-05T18:18:19.925Z,2.90
2023-05-05T18:20:47.694Z,2.97
2023-05-05T18:23:15.453Z,1.60
2023-05-05T18:25:44.476Z,1.57
2023-05-05T18:28:12.199Z,4.27
2023-05-05T18:30:39.893Z,2.07
2023-05-05T18:33:07.474Z,1.60
2023-05-05T18:35:35.172Z,2.70
2023-05-05T18:38:03.328Z,1.47
2023-05-05T18:40:31.668Z,1.10
2023-05-05T18:43:00.553Z,1.23
2023-05-05T18:45:28.267Z,0.50
2023-05-05T18:47:56.317Z,1.13
2023-05-05T18:50:24.000Z,0.50
2023-05-05T18:52:51.552Z,0.60
2023-05-05T18:55:19.567Z,0.60
2023-05-05T18:57:47.156Z,0.30
2023-05-05T19:00:19.765Z,1.37
2023-05-05T19:02:47.384Z,0.60
2023-05-05T19:05:15.558Z,0.63
2023-05-05T19:07:43.184Z,0.60
2023-05-05T19:10:11.791Z,1.20
2023-05-05T19:12:39.395Z,0.87
2023-05-05T19:15:08.285Z,1.40
2023-05-05T19:17:37.565Z,0.57
2023-05-05T19:20:05.932Z,0.73
2023-05-05T19:22:33.642Z,1.07
2023-05-05T19:25:01.490Z,1.60
2023-05-05T19:27:29.082Z,1.00
2023-05-05T19:29:56.906Z,0.77
2023-05-05T19:32:24.681Z,1.17
2023-05-05T19:34:54.488Z,1.53
2023-05-05T19:37:22.291Z,1.13
2023-05-05T19:39:51.565Z,1.00
2023-05-05T19:42:19.344Z,0.83
2023-05-05T19:44:46.890Z,1.53
2023-05-05T19:47:14.757Z,1.20
2023-05-05T19:49:42.340Z,1.00
2023-05-05T19:52:11.329Z,1.23
2023-05-05T19:54:39.233Z,1.50
2023-05-05T19:57:07.237Z,1.03
2023-05-05T19:59:34.905Z,1.90
2023-05-05T20:02:02.653Z,1.27
2023-05-05T20:04:30.277Z,1.53
2023-05-05T20:06:58.070Z,1.40
2023-05-05T20:09:27.436Z,2.20
2023-05-05T20:11:56.327Z,1.43
2023-05-05T20:14:23.946Z,1.10
2023-05-05T20:16:51.614Z,1.60
2023-05-05T20:19:19.799Z,3.03
2023-05-05T20:21:47.387Z,1.87
2023-05-05T20:24:15.179Z,1.13
2023-05-05T20:26:44.064Z,1.63
2023-05-05T20:29:11.637Z,1.50
2023-05-05T20:31:39.215Z,1.67
2023-05-05T20:34:07.003Z,2.23
2023-05-05T20:36:34.614Z,1.67
2023-05-05T20:39:02.179Z,1.70
2023-05-05T20:41:29.746Z,1.80
2023-05-05T20:43:58.624Z,2.93
2023-05-05T20:46:26.396Z,1.40
2023-05-05T20:48:54.148Z,1.33
2023-05-05T20:51:21.714Z,1.50
2023-05-05T20:53:49.261Z,2.17
2023-05-05T20:56:16.957Z,2.00
2023-05-05T20:58:44.528Z,2.10
2023-05-05T21:01:13.996Z,2.97
2023-05-05T21:03:41.634Z,2.20
2023-05-05T21:06:09.190Z,1.60
2023-05-05T21:08:36.842Z,1.90
2023-05-05T21:11:09.167Z,1.67
2023-05-05T21:13:36.957Z,1.57
2023-05-05T21:16:04.782Z,1.63
2023-05-05T21:18:33.726Z,1.03
2023-05-05T21:21:01.294Z,1.60
2023-05-05T21:23:28.882Z,1.20
2023-05-05T21:25:56.600Z,1.60
2023-05-05T21:28:24.248Z,1.20
2023-05-05T21:31:10.149Z,1.30
2023-05-05T21:33:40.899Z,1.40
2023-05-05T21:36:08.975Z,1.17
2023-05-05T21:38:36.551Z,1.37
2023-05-05T21:41:04.136Z,1.30
2023-05-05T21:43:31.829Z,1.63
2023-05-05T21:45:59.884Z,1.90
2023-05-05T21:48:27.849Z,2.40
2023-05-05T21:50:56.717Z,0.77
2023-05-05T21:53:24.687Z,1.13
2023-05-05T21:55:52.492Z,0.93
2023-05-05T21:58:20.374Z,0.87
2023-05-05T22:00:49.907Z,0.87
2023-05-05T22:03:17.752Z,0.90
2023-05-05T22:05:46.058Z,1.27
2023-05-05T22:08:15.183Z,0.80
2023-05-05T22:10:42.908Z,1.37
2023-05-05T22:13:10.926Z,1.00
2023-05-05T22:15:46.680Z,2.43
2023-05-05T22:18:15.274Z,1.43
2023-05-05T22:20:43.316Z,1.80
2023-05-05T22:23:11.121Z,2.73
2023-05-05T22:25:40.264Z,1.73
2023-05-05T22:28:07.820Z,2.23
2023-05-05T22:30:35.414Z,2.20
2023-05-05T22:33:03.068Z,1.67
2023-05-05T22:35:31.145Z,2.37
2023-05-05T22:37:58.847Z,1.93
2023-05-05T22:40:26.747Z,1.60
2023-05-05T22:42:55.976Z,1.63
2023-05-05T22:45:24.082Z,1.93
2023-05-05T22:47:51.734Z,2.77
2023-05-05T22:50:19.479Z,2.03
2023-05-05T22:52:47.057Z,1.50
2023-05-05T22:55:15.256Z,1.93
2023-05-05T22:57:43.245Z,1.47
2023-05-05T23:00:12.966Z,2.27
2023-05-05T23:02:41.493Z,1.80
2023-05-05T23:05:10.115Z,1.43
2023-05-05T23:07:38.043Z,1.73
2023-05-05T23:10:06.630Z,1.23
2023-05-05T23:12:34.237Z,1.37
2023-05-05T23:15:02.001Z,1.97
2023-05-05T23:17:30.935Z,2.77
2023-05-05T23:19:58.668Z,2.37
2023-05-05T23:22:26.389Z,2.43
2023-05-05T23:24:54.229Z,3.73
2023-05-05T23:27:22.982Z,2.97
2023-05-05T23:29:50.608Z,2.87
2023-05-05T23:32:18.527Z,2.87
2023-05-05T23:34:47.417Z,2.70
2023-05-05T23:37:15.261Z,2.90
2023-05-05T23:39:42.966Z,2.57
2023-05-05T23:42:10.665Z,3.10
2023-05-05T23:44:38.232Z,2.47
2023-05-05T23:47:06.450Z,2.70
2023-05-05T23:49:34.022Z,1.97
2023-05-05T23:52:03.426Z,1.90
2023-05-05T23:54:31.002Z,2.27
2023-05-05T23:56:58.681Z,2.47
2023-05-05T23:59:26.307Z,2.40
